createdAt,value
2023-04-07T00:01:09.516Z,99.90
2023-04-07T00:03:38.940Z,99.90
2023-04-07T00:06:07.339Z,99.90
2023-04-07T00:08:34.857Z,99.90
2023-04-07T00:11:02.431Z,99.90
2023-04-07T00:13:30.837Z,99.90
2023-04-07T00:15:58.384Z,99.90
2023-04-07T00:18:26.211Z,99.90
2023-04-07T00:20:53.754Z,99.90
2023-04-07T00:23:21.396Z,99.90
2023-04-07T00:25:49.580Z,99.90
2023-04-07T00:28:16.994Z,99.90
2023-04-07T00:30:44.712Z,99.90
2023-04-07T00:33:12.162Z,99.90
2023-04-07T00:35:39.995Z,99.90
2023-04-07T00:38:07.679Z,99.90
2023-04-07T00:40:35.456Z,99.90
2023-04-07T00:43:03.326Z,99.90
2023-04-07T00:45:31.086Z,99.90
2023-04-07T00:47:58.961Z,99.90
2023-04-07T00:50:26.777Z,99.90
2023-04-07T00:52:57.028Z,99.90
2023-04-07T00:55:24.852Z,99.90
2023-04-07T00:57:52.309Z,99.90
2023-04-07T01:00:20.650Z,99.90
2023-04-07T01:03:08.351Z,99.90
2023-04-07T01:05:58.073Z,99.90
2023-04-07T01:08:41.402Z,99.90
2023-04-07T01:11:20.151Z,99.90
2023-04-07T01:13:53.089Z,99.90
2023-04-07T01:16:46.703Z,99.90
2023-04-07T01:19:51.709Z,99.90
2023-04-07T01:22:40.354Z,99.90
2023-04-07T01:25:54.177Z,99.90
2023-04-07T01:29:00.493Z,99.90
2023-04-07T01:31:29.498Z,99.90
2023-04-07T01:33:59.390Z,99.90
2023-04-07T01:36:29.288Z,99.90
2023-04-07T01:38:58.642Z,99.90
2023-04-07T01:41:27.972Z,99.90
2023-04-07T01:43:57.600Z,99.90
2023-04-07T01:46:25.339Z,99.90
2023-04-07T01:48:53.404Z,99.90
2023-04-07T01:51:22.733Z,99.90
2023-04-07T01:53:50.445Z,99.90
2023-04-07T01:56:18.422Z,99.90
2023-04-07T01:58:50.672Z,99.90
2023-04-07T02:01:21.234Z,99.90
2023-04-07T02:04:44.004Z,99.90
2023-04-07T02:07:18.705Z,99.90
2023-04-07T02:09:51.566Z,99.90
2023-04-07T02:12:20.777Z,99.90
2023-04-07T02:15:12.708Z,99.90
2023-04-07T02:17:47.600Z,99.90
2023-04-07T02:20:16.446Z,99.90
2023-04-07T02:22:44.921Z,99.90
2023-04-07T02:25:32.562Z,99.90
2023-04-07T02:28:00.911Z,99.90
2023-04-07T02:30:29.760Z,99.90
2023-04-07T02:32:57.379Z,99.90
2023-04-07T02:35:24.914Z,99.90
2023-04-07T02:37:52.651Z,99.90
2023-04-07T02:40:20.401Z,99.90
2023-04-07T02:42:47.889Z,99.90
2023-04-07T02:45:16.167Z,99.90
2023-04-07T02:47:43.654Z,99.90
2023-04-07T02:50:11.440Z,99.90
2023-04-07T02:52:39.014Z,99.90
2023-04-07T02:55:11.996Z,99.90
2023-04-07T02:57:39.934Z,99.90
2023-04-07T03:00:14.354Z,99.90
2023-04-07T03:03:00.531Z,99.90
2023-04-07T03:05:31.927Z,99.90
2023-04-07T03:08:01.042Z,99.90
2023-04-07T03:10:29.104Z,99.90
2023-04-07T03:12:57.838Z,99.90
2023-04-07T03:15:25.505Z,99.90
2023-04-07T03:17:53.240Z,99.90
2023-04-07T03:20:21.408Z,99.90
2023-04-07T03:22:48.907Z,99.90
2023-04-07T03:25:22.902Z,99.90
2023-04-07T03:27:51.940Z,99.90
2023-04-07T03:30:20.523Z,99.90
2023-04-07T03:32:48.670Z,99.90
2023-04-07T03:35:16.327Z,99.90
2023-04-07T03:37:45.415Z,99.90
2023-04-07T03:40:17.229Z,99.90
2023-04-07T03:42:46.874Z,99.90
2023-04-07T03:45:16.500Z,99.90
2023-04-07T03:47:48.262Z,99.90
2023-04-07T03:50:17.105Z,99.90
2023-04-07T03:52:53.896Z,99.90
2023-04-07T03:55:26.064Z,99.90
2023-04-07T03:57:58.563Z,99.90
2023-04-07T04:00:31.851Z,99.90
2023-04-07T04:03:07.163Z,99.90
2023-04-07T04:05:37.687Z,99.90
2023-04-07T04:08:05.685Z,99.90
2023-04-07T04:10:35.390Z,99.90
2023-04-07T04:13:06.797Z,99.90
2023-04-07T04:15:35.378Z,99.90
2023-04-07T04:18:06.226Z,99.90
2023-04-07T04:20:34.540Z,99.90
2023-04-07T04:23:03.755Z,99.90
2023-04-07T04:25:31.303Z,99.90
2023-04-07T04:27:59.317Z,99.90
2023-04-07T04:30:28.435Z,99.90
2023-04-07T04:33:00.476Z,99.90
2023-04-07T04:35:35.607Z,99.90
2023-04-07T04:38:16.804Z,99.90
2023-04-07T04:40:51.589Z,99.90
2023-04-07T04:43:24.450Z,99.90
2023-04-07T04:45:52.257Z,99.90
2023-04-07T04:48:23.792Z,99.90
2023-04-07T04:50:51.508Z,99.90
2023-04-07T04:53:18.940Z,99.90
2023-04-07T04:55:53.258Z,99.90
2023-04-07T04:58:32.377Z,99.90
2023-04-07T05:01:00.769Z,99.90
2023-04-07T05:03:38.228Z,99.90
2023-04-07T05:06:13.239Z,99.90
2023-04-07T05:08:43.419Z,99.90
2023-04-07T05:11:12.385Z,99.90
2023-04-07T05:13:40.513Z,99.90
2023-04-07T05:16:08.376Z,99.90
2023-04-07T05:18:37.077Z,99.90
2023-04-07T05:21:06.263Z,99.90
2023-04-07T05:23:36.591Z,99.90
2023-04-07T05:26:06.358Z,99.90
2023-04-07T05:28:33.990Z,99.90
2023-04-07T05:31:07.799Z,99.90
2023-04-07T05:33:36.710Z,99.90
2023-04-07T05:36:04.765Z,99.90
2023-04-07T05:38:33.302Z,99.90
2023-04-07T05:41:08.572Z,99.90
2023-04-07T05:43:37.526Z,99.90
2023-04-07T05:46:06.689Z,99.90
2023-04-07T05:48:39.068Z,99.90
2023-04-07T05:51:06.550Z,99.90
2023-04-07T05:53:34.157Z,99.90
2023-04-07T05:56:02.576Z,99.90
2023-04-07T05:58:44.196Z,99.90
2023-04-07T06:01:13.168Z,99.90
2023-04-07T06:03:41.370Z,99.90
2023-04-07T06:06:28.742Z,99.90
2023-04-07T06:08:56.289Z,99.90
2023-04-07T06:11:26.418Z,99.90
2023-04-07T06:13:54.107Z,99.90
2023-04-07T06:16:21.852Z,99.90
2023-04-07T06:18:52.351Z,99.90
2023-04-07T06:21:19.871Z,99.90
2023-04-07T06:23:47.659Z,99.90
2023-04-07T06:26:15.671Z,99.90
2023-04-07T06:28:43.201Z,99.90
2023-04-07T06:31:12.877Z,99.90
2023-04-07T06:33:40.569Z,99.90
2023-04-07T06:36:08.441Z,99.90
2023-04-07T06:38:36.911Z,99.90
2023-04-07T06:41:04.483Z,99.90
2023-04-07T06:43:32.038Z,99.90
2023-04-07T06:46:04.514Z,99.70
2023-04-07T06:48:32.024Z,98.00
2023-04-07T06:50:59.490Z,96.00
2023-04-07T06:53:27.136Z,94.00
2023-04-07T06:56:05.789Z,93.00
2023-04-07T06:58:34.163Z,91.50
2023-04-07T07:01:02.711Z,88.30
2023-04-07T07:03:31.813Z,87.20
2023-04-07T07:06:00.462Z,88.60
2023-04-07T07:08:29.673Z,84.70
2023-04-07T07:10:57.209Z,81.50
2023-04-07T07:13:26.729Z,77.50
2023-04-07T07:15:54.585Z,75.00
2023-04-07T07:18:22.113Z,69.00
2023-04-07T07:20:50.705Z,69.90
2023-04-07T07:23:18.244Z,70.10
2023-04-07T07:25:45.737Z,70.30
2023-04-07T07:28:13.168Z,71.70
2023-04-07T07:30:44.351Z,72.40
2023-04-07T07:33:11.839Z,72.40
2023-04-07T07:35:40.560Z,75.10
2023-04-07T07:38:08.214Z,75.70
2023-04-07T07:40:35.747Z,76.00
2023-04-07T07:43:03.289Z,73.10
2023-04-07T07:45:30.793Z,70.60
2023-04-07T07:47:58.442Z,72.90
2023-04-07T07:50:26.014Z,66.60
2023-04-07T07:52:53.570Z,64.50
2023-04-07T07:55:22.155Z,64.10
2023-04-07T07:57:49.593Z,68.30
2023-04-07T08:00:17.314Z,67.60
2023-04-07T08:02:44.957Z,67.00
2023-04-07T08:05:12.887Z,67.60
2023-04-07T08:07:40.469Z,65.60
2023-04-07T08:10:08.511Z,65.40
2023-04-07T08:12:36.215Z,63.50
2023-04-07T08:15:04.065Z,61.90
2023-04-07T08:17:31.649Z,62.80
2023-04-07T08:19:59.091Z,65.00
2023-04-07T08:22:26.587Z,65.80
2023-04-07T08:24:54.045Z,68.30
2023-04-07T08:27:21.499Z,68.00
2023-04-07T08:30:03.361Z,67.20
2023-04-07T08:32:42.234Z,63.10
2023-04-07T08:35:10.451Z,69.70
2023-04-07T08:37:39.702Z,68.60
2023-04-07T08:40:07.884Z,64.60
2023-04-07T08:42:38.623Z,67.10
2023-04-07T08:45:08.053Z,66.60
2023-04-07T08:47:36.757Z,64.60
2023-04-07T08:50:09.774Z,65.00
2023-04-07T08:52:56.904Z,62.90
2023-04-07T08:55:26.145Z,63.70
2023-04-07T08:57:54.506Z,62.70
2023-04-07T09:00:24.927Z,62.50
2023-04-07T09:02:53.096Z,63.00
2023-04-07T09:05:21.627Z,61.40
2023-04-07T09:07:49.354Z,61.50
2023-04-07T09:10:17.596Z,58.30
2023-04-07T09:12:45.148Z,59.50
2023-04-07T09:15:12.603Z,55.40
2023-04-07T09:17:40.786Z,54.80
2023-04-07T09:20:08.912Z,56.00
2023-04-07T09:22:45.843Z,55.90
2023-04-07T09:25:26.427Z,56.40
2023-04-07T09:28:02.099Z,57.70
2023-04-07T09:30:31.106Z,59.20
2023-04-07T09:33:01.092Z,58.90
2023-04-07T09:35:29.863Z,57.80
2023-04-07T09:38:08.583Z,61.80
2023-04-07T09:40:37.718Z,56.50
2023-04-07T09:43:16.861Z,54.50
2023-04-07T09:45:44.557Z,57.90
2023-04-07T09:48:22.124Z,56.80
2023-04-07T09:50:49.721Z,56.30
2023-04-07T09:53:18.313Z,56.10
2023-04-07T09:55:46.154Z,55.10
2023-04-07T09:58:17.083Z,54.80
2023-04-07T10:00:45.708Z,54.10
2023-04-07T10:03:14.124Z,55.10
2023-04-07T10:05:42.670Z,53.80
2023-04-07T10:08:10.477Z,52.80
2023-04-07T10:10:42.576Z,52.10
2023-04-07T10:13:10.285Z,55.00
2023-04-07T10:15:37.977Z,56.90
2023-04-07T10:18:08.960Z,55.40
2023-04-07T10:20:41.461Z,55.00
2023-04-07T10:23:18.979Z,51.30
2023-04-07T10:25:48.972Z,54.00
2023-04-07T10:28:18.104Z,56.80
2023-04-07T10:30:47.945Z,53.50
2023-04-07T10:33:15.478Z,53.70
2023-04-07T10:36:08.453Z,51.60
2023-04-07T10:38:36.515Z,52.00
2023-04-07T10:41:32.723Z,52.00
2023-04-07T10:44:00.513Z,53.60
2023-04-07T10:46:52.094Z,53.20
2023-04-07T10:49:21.065Z,54.00
2023-04-07T10:52:24.163Z,55.80
2023-04-07T10:55:49.837Z,54.50
2023-04-07T10:58:22.710Z,54.50
2023-04-07T11:01:19.843Z,51.90
2023-04-07T11:03:56.180Z,51.30
2023-04-07T11:06:23.952Z,50.80
2023-04-07T11:08:51.677Z,51.70
2023-04-07T11:11:39.889Z,50.70
2023-04-07T11:14:07.509Z,49.40
2023-04-07T11:16:40.023Z,50.70
2023-04-07T11:19:07.737Z,50.10
2023-04-07T11:21:36.777Z,51.80
2023-04-07T11:24:04.586Z,53.60
2023-04-07T11:26:41.844Z,55.50
2023-04-07T11:29:10.453Z,52.40
2023-04-07T11:31:38.858Z,51.80
2023-04-07T11:34:06.479Z,49.50
2023-04-07T11:36:39.337Z,52.20
2023-04-07T11:39:17.792Z,48.50
2023-04-07T11:41:50.000Z,50.50
2023-04-07T11:44:17.814Z,48.90
2023-04-07T11:47:05.016Z,50.00
2023-04-07T11:49:32.632Z,49.40
2023-04-07T11:52:07.495Z,51.30
2023-04-07T11:54:42.664Z,51.00
2023-04-07T11:57:12.872Z,51.10
2023-04-07T11:59:41.793Z,50.70
2023-04-07T12:02:09.719Z,53.50
2023-04-07T12:04:40.271Z,52.80
2023-04-07T12:07:09.974Z,52.10
2023-04-07T12:09:38.436Z,51.60
2023-04-07T12:12:08.365Z,53.10
2023-04-07T12:14:36.585Z,53.20
2023-04-07T12:17:04.589Z,53.10
2023-04-07T12:19:36.189Z,50.60
2023-04-07T12:22:03.955Z,50.90
2023-04-07T12:24:32.630Z,52.10
2023-04-07T12:27:00.330Z,52.60
2023-04-07T12:29:28.070Z,53.10
2023-04-07T12:31:56.558Z,52.50
2023-04-07T12:34:24.115Z,53.20
2023-04-07T12:36:51.712Z,52.50
2023-04-07T12:39:19.132Z,53.00
2023-04-07T12:41:47.890Z,53.10
2023-04-07T12:44:16.125Z,55.10
2023-04-07T12:46:43.617Z,53.40
2023-04-07T12:49:11.141Z,54.10
2023-04-07T12:51:40.182Z,54.00
2023-04-07T12:54:07.966Z,52.90
2023-04-07T12:56:35.489Z,52.90
2023-04-07T12:59:03.076Z,55.60
2023-04-07T13:01:30.647Z,54.90
2023-04-07T13:03:58.340Z,56.70
2023-04-07T13:06:25.938Z,54.90
2023-04-07T13:08:53.479Z,55.40
2023-04-07T13:11:21.958Z,55.10
2023-04-07T13:13:49.652Z,53.00
2023-04-07T13:16:17.360Z,54.10
2023-04-07T13:18:45.054Z,53.00
2023-04-07T13:21:42.646Z,54.00
2023-04-07T13:24:00.229Z,54.00
2023-04-07T13:26:28.279Z,52.90
2023-04-07T13:28:56.054Z,53.60
2023-04-07T13:31:26.066Z,56.20
2023-04-07T13:33:53.697Z,53.80
2023-04-07T13:36:23.352Z,54.50
2023-04-07T13:38:51.037Z,55.00
2023-04-07T13:41:18.464Z,53.90
2023-04-07T13:43:46.107Z,55.90
2023-04-07T13:46:27.796Z,53.60
2023-04-07T13:48:57.004Z,53.40
2023-04-07T13:51:24.717Z,52.90
2023-04-07T13:53:52.324Z,54.50
2023-04-07T13:56:19.910Z,54.40
2023-04-07T13:58:48.069Z,54.80
2023-04-07T14:01:15.515Z,55.90
2023-04-07T14:03:43.179Z,55.00
2023-04-07T14:06:10.869Z,57.20
2023-04-07T14:08:38.301Z,55.60
2023-04-07T14:11:05.849Z,56.30
2023-04-07T14:13:33.307Z,54.90
2023-04-07T14:16:00.713Z,55.60
2023-04-07T14:18:28.401Z,57.20
2023-04-07T14:20:55.781Z,56.40
2023-04-07T14:23:34.290Z,56.80
2023-04-07T14:26:04.452Z,56.50
2023-04-07T14:28:32.032Z,57.70
2023-04-07T14:30:59.529Z,57.10
2023-04-07T14:33:26.948Z,55.80
2023-04-07T14:35:54.345Z,57.30
2023-04-07T14:38:26.002Z,56.50
2023-04-07T14:40:53.677Z,56.20
2023-04-07T14:43:21.415Z,56.10
2023-04-07T14:45:48.851Z,56.40
2023-04-07T14:48:18.706Z,56.10
2023-04-07T14:50:47.672Z,56.60
2023-04-07T14:53:16.366Z,58.30
2023-04-07T14:55:43.871Z,60.40
2023-04-07T14:58:11.340Z,56.30
2023-04-07T15:00:38.945Z,58.20
2023-04-07T15:03:06.599Z,58.50
2023-04-07T15:05:34.378Z,58.70
2023-04-07T15:08:02.054Z,58.30
2023-04-07T15:10:30.194Z,59.80
2023-04-07T15:12:57.654Z,58.20
2023-04-07T15:15:25.070Z,58.80
2023-04-07T15:17:52.538Z,58.80
2023-04-07T15:20:21.440Z,59.80
2023-04-07T15:22:48.928Z,60.90
2023-04-07T15:25:16.855Z,61.10
2023-04-07T15:27:44.280Z,61.80
2023-04-07T15:30:12.475Z,62.00
2023-04-07T15:32:40.013Z,62.50
2023-04-07T15:35:08.060Z,61.30
2023-04-07T15:37:35.629Z,61.10
2023-04-07T15:40:03.159Z,60.60
2023-04-07T15:42:31.937Z,64.40
2023-04-07T15:44:59.395Z,62.40
2023-04-07T15:47:26.892Z,63.00
2023-04-07T15:49:54.434Z,65.90
2023-04-07T15:52:21.795Z,64.90
2023-04-07T15:54:49.222Z,63.90
2023-04-07T15:57:16.853Z,63.80
2023-04-07T15:59:44.376Z,65.50
2023-04-07T16:02:14.179Z,66.50
2023-04-07T16:04:41.977Z,67.20
2023-04-07T16:07:09.502Z,67.80
2023-04-07T16:09:36.918Z,68.80
2023-04-07T16:12:04.518Z,69.00
2023-04-07T16:14:32.070Z,70.30
2023-04-07T16:16:59.540Z,71.30
2023-04-07T16:19:27.035Z,72.00
2023-04-07T16:21:55.114Z,72.30
2023-04-07T16:24:22.667Z,73.40
2023-04-07T16:26:51.495Z,72.50
2023-04-07T16:29:19.845Z,74.50
2023-04-07T16:31:47.355Z,73.70
2023-04-07T16:34:14.947Z,74.10
2023-04-07T16:36:42.458Z,76.40
2023-04-07T16:39:10.063Z,75.20
2023-04-07T16:41:37.503Z,77.50
2023-04-07T16:44:04.987Z,77.10
2023-04-07T16:46:32.585Z,77.10
2023-04-07T16:49:00.190Z,77.60
2023-04-07T16:51:28.592Z,80.10
2023-04-07T16:53:56.090Z,79.80
2023-04-07T16:56:24.891Z,77.60
2023-04-07T16:58:52.328Z,78.40
2023-04-07T17:01:19.850Z,78.20
2023-04-07T17:03:51.569Z,80.10
2023-04-07T17:06:19.366Z,79.80
2023-04-07T17:08:48.828Z,79.80
2023-04-07T17:11:16.361Z,81.40
2023-04-07T17:13:43.765Z,82.80
2023-04-07T17:16:14.895Z,83.00
2023-04-07T17:18:42.432Z,84.70
2023-04-07T17:21:10.117Z,86.20
2023-04-07T17:23:37.500Z,87.80
2023-04-07T17:26:05.120Z,87.30
2023-04-07T17:28:32.701Z,89.20
2023-04-07T17:31:00.432Z,90.00
2023-04-07T17:33:29.013Z,90.70
2023-04-07T17:35:58.006Z,90.80
2023-04-07T17:38:25.575Z,91.80
2023-04-07T17:40:59.848Z,92.50
2023-04-07T17:43:28.662Z,93.00
2023-04-07T17:45:56.684Z,94.00
2023-04-07T17:48:24.229Z,94.70
2023-04-07T17:50:51.731Z,95.30
2023-04-07T17:53:19.685Z,95.20
2023-04-07T17:55:47.400Z,95.70
2023-04-07T17:58:15.703Z,95.70
2023-04-07T18:00:43.254Z,96.20
2023-04-07T18:03:11.665Z,97.10
2023-04-07T18:05:43.902Z,98.10
2023-04-07T18:08:11.558Z,99.50
2023-04-07T18:10:39.320Z,99.90
2023-04-07T18:13:07.155Z,99.90
2023-04-07T18:15:34.908Z,99.90
2023-04-07T18:18:02.494Z,99.90
2023-04-07T18:20:30.037Z,99.90
2023-04-07T18:22:58.033Z,99.90
2023-04-07T18:25:25.772Z,99.90
2023-04-07T18:27:53.455Z,99.90
2023-04-07T18:30:21.469Z,99.90
2023-04-07T18:32:49.494Z,99.90
2023-04-07T18:35:16.949Z,99.90
2023-04-07T18:37:44.524Z,99.90
2023-04-07T18:40:12.457Z,99.90
2023-04-07T18:42:39.924Z,99.90
2023-04-07T18:45:08.225Z,99.90
2023-04-07T18:47:35.691Z,99.90
2023-04-07T18:50:03.509Z,99.90
2023-04-07T18:52:31.058Z,99.90
2023-04-07T18:54:59.141Z,99.90
2023-04-07T18:57:26.704Z,99.90
2023-04-07T18:59:54.337Z,99.90
2023-04-07T19:02:22.105Z,99.90
2023-04-07T19:04:49.668Z,99.90
2023-04-07T19:07:17.113Z,99.90
2023-04-07T19:09:44.579Z,99.90
2023-04-07T19:12:12.140Z,99.90
2023-04-07T19:14:39.642Z,99.90
2023-04-07T19:17:07.162Z,99.90
2023-04-07T19:19:34.602Z,99.90
2023-04-07T19:22:02.578Z,99.90
2023-04-07T19:24:30.021Z,99.90
2023-04-07T19:26:57.906Z,99.90
2023-04-07T19:29:25.356Z,99.90
2023-04-07T19:31:54.767Z,99.90
2023-04-07T19:34:22.243Z,99.90
2023-04-07T19:36:49.678Z,99.90
2023-04-07T19:39:17.160Z,99.90
2023-04-07T19:41:44.591Z,99.90
2023-04-07T19:44:12.146Z,99.90
2023-04-07T19:46:39.691Z,99.90
2023-04-07T19:49:10.729Z,99.90
2023-04-07T19:51:38.245Z,99.90
2023-04-07T19:54:05.692Z,99.90
2023-04-07T19:56:33.154Z,99.90
2023-04-07T19:59:00.790Z,99.90
2023-04-07T20:01:28.357Z,99.90
2023-04-07T20:03:56.206Z,99.90
2023-04-07T20:06:26.772Z,99.90
2023-04-07T20:08:55.616Z,99.90
2023-04-07T20:11:23.314Z,99.90
2023-04-07T20:13:50.784Z,99.90
2023-04-07T20:16:18.287Z,99.90
2023-04-07T20:18:46.407Z,99.90
2023-04-07T20:21:15.774Z,99.90
2023-04-07T20:23:43.731Z,99.90
2023-04-07T20:26:11.133Z,99.90
2023-04-07T20:28:38.566Z,99.90
2023-04-07T20:31:06.228Z,99.90
2023-04-07T20:33:33.808Z,99.90
2023-04-07T20:36:01.274Z,99.90
2023-04-07T20:38:29.275Z,99.90
2023-04-07T20:40:56.824Z,99.90
2023-04-07T20:43:24.501Z,99.90
2023-04-07T20:45:52.721Z,99.90
2023-04-07T20:48:26.687Z,99.90
2023-04-07T20:50:54.202Z,99.90
2023-04-07T20:53:22.225Z,99.90
2023-04-07T20:55:49.765Z,99.90
2023-04-07T20:58:18.614Z,99.90
2023-04-07T21:00:46.759Z,99.90
2023-04-07T21:03:14.889Z,99.90
2023-04-07T21:05:43.589Z,99.90
2023-04-07T21:08:12.769Z,99.90
2023-04-07T21:10:41.571Z,99.90
2023-04-07T21:13:08.995Z,99.90
2023-04-07T21:15:37.752Z,99.90
2023-04-07T21:18:05.579Z,99.90
2023-04-07T21:20:33.083Z,99.90
2023-04-07T21:23:00.876Z,99.90
2023-04-07T21:25:28.275Z,99.90
2023-04-07T21:27:55.731Z,99.90
2023-04-07T21:30:23.385Z,99.90
2023-04-07T21:32:51.123Z,99.90
2023-04-07T21:35:19.840Z,99.90
2023-04-07T21:37:47.392Z,99.90
2023-04-07T21:40:14.764Z,99.90
2023-04-07T21:42:42.604Z,99.90
2023-04-07T21:45:10.988Z,99.90
2023-04-07T21:47:38.510Z,99.90
2023-04-07T21:50:06.686Z,99.90
2023-04-07T21:52:34.292Z,99.90
2023-04-07T21:55:01.696Z,99.90
2023-04-07T21:57:29.268Z,99.90
2023-04-07T21:59:56.768Z,99.90
2023-04-07T22:02:24.400Z,99.90
2023-04-07T22:04:52.004Z,99.90
2023-04-07T22:07:19.548Z,99.90
2023-04-07T22:09:47.203Z,99.90
2023-04-07T22:12:14.719Z,99.90
2023-04-07T22:14:42.899Z,99.90
2023-04-07T22:17:10.351Z,99.90
2023-04-07T22:19:37.873Z,99.90
2023-04-07T22:22:07.763Z,99.90
2023-04-07T22:24:35.573Z,99.90
2023-04-07T22:27:03.460Z,99.90
2023-04-07T22:29:30.917Z,99.90
2023-04-07T22:31:58.490Z,99.90
2023-04-07T22:34:26.230Z,99.90
2023-04-07T22:36:53.658Z,99.90
2023-04-07T22:39:21.005Z,99.90
2023-04-07T22:41:48.355Z,99.90
2023-04-07T22:44:15.796Z,99.90
2023-04-07T22:46:43.312Z,99.90
2023-04-07T22:49:11.101Z,99.90
2023-04-07T22:51:38.715Z,99.90
2023-04-07T22:54:06.148Z,99.90
2023-04-07T22:56:33.586Z,99.90
2023-04-07T22:59:05.880Z,99.90
2023-04-07T23:01:33.699Z,99.90
2023-04-07T23:04:01.575Z,99.90
2023-04-07T23:06:29.167Z,99.90
2023-04-07T23:08:56.940Z,99.90
2023-04-07T23:11:24.534Z,99.90
2023-04-07T23:13:52.345Z,99.90
2023-04-07T23:16:19.829Z,99.90
2023-04-07T23:18:47.510Z,99.90
2023-04-07T23:21:15.074Z,99.90
2023-04-07T23:23:42.565Z,99.90
2023-04-07T23:26:09.964Z,99.90
2023-04-07T23:28:37.467Z,99.90
2023-04-07T23:31:06.691Z,99.90
2023-04-07T23:33:34.469Z,99.90
2023-04-07T23:36:02.278Z,99.90
2023-04-07T23:38:29.977Z,99.90
2023-04-07T23:40:57.617Z,99.90
2023-04-07T23:43:25.119Z,99.90
2023-04-07T23:45:52.593Z,99.90
2023-04-07T23:48:20.048Z,99.90
2023-04-07T23:50:49.875Z,99.90
2023-04-07T23:53:17.886Z,99.90
2023-04-07T23:55:45.358Z,99.90
2023-04-07T23:58:12.807Z,99.90
